sensor_id;sensor_type;location;lat;lon;timestamp;temperature;humidity
16283;DHT22;8249;48.708;9.030;2022-10-16T00:00:42;14.40;99.90
16283;DHT22;8249;48.708;9.030;2022-10-16T00:03:09;14.40;99.90
16283;DHT22;8249;48.708;9.030;2022-10-16T00:05:41;14.40;99.90
16283;DHT22;8249;48.708;9.030;2022-10-16T00:08:10;14.30;99.90
16283;DHT22;8249;48.708;9.030;2022-10-16T00:10:37;14.30;99.90
16283;DHT22;8249;48.708;9.030;2022-10-16T00:13:06;14.30;99.90
16283;DHT22;8249;48.708;9.030;2022-10-16T00:15:33;14.20;99.90
16283;DHT22;8249;48.708;9.030;2022-10-16T00:18:03;14.20;99.90
16283;DHT22;8249;48.708;9.030;2022-10-16T00:20:31;14.10;99.90
16283;DHT22;8249;48.708;9.030;2022-10-16T00:22:59;14.10;99.90
16283;DHT22;8249;48.708;9.030;2022-10-16T00:25:26;14.20;99.90
16283;DHT22;8249;48.708;9.030;2022-10-16T00:27:53;14.00;99.90
16283;DHT22;8249;48.708;9.030;2022-10-16T00:30:22;14.00;99.90
16283;DHT22;8249;48.708;9.030;2022-10-16T00:32:48;14.00;99.90
16283;DHT22;8249;48.708;9.030;2022-10-16T00:35:15;13.90;99.90
16283;DHT22;8249;48.708;9.030;2022-10-16T00:37:42;13.90;99.90
16283;DHT22;8249;48.708;9.030;2022-10-16T00:40:10;13.90;99.90
16283;DHT22;8249;48.708;9.030;2022-10-16T00:42:37;13.80;99.90
16283;DHT22;8249;48.708;9.030;2022-10-16T00:45:05;13.80;99.90
16283;DHT22;8249;48.708;9.030;2022-10-16T00:47:36;13.80;99.90
16283;DHT22;8249;48.708;9.030;2022-10-16T00:50:08;13.80;99.90
16283;DHT22;8249;48.708;9.030;2022-10-16T00:52:37;13.80;99.90
16283;DHT22;8249;48.708;9.030;2022-10-16T00:55:07;13.80;99.90
16283;DHT22;8249;48.708;9.030;2022-10-16T00:57:35;13.80;99.90
16283;DHT22;8249;48.708;9.030;2022-10-16T01:00:03;13.80;99.90
16283;DHT22;8249;48.708;9.030;2022-10-16T01:02:30;13.80;99.90
16283;DHT22;8249;48.708;9.030;2022-10-16T01:04:59;13.80;99.90
16283;DHT22;8249;48.708;9.030;2022-10-16T01:07:36;13.80;99.90
16283;DHT22;8249;48.708;9.030;2022-10-16T01:10:15;13.80;99.90
16283;DHT22;8249;48.708;9.030;2022-10-16T01:12:48;13.80;99.90
16283;DHT22;8249;48.708;9.030;2022-10-16T01:15:21;13.80;99.90
16283;DHT22;8249;48.708;9.030;2022-10-16T01:17:56;13.80;99.90
16283;DHT22;8249;48.708;9.030;2022-10-16T01:20:29;13.80;99.90
16283;DHT22;8249;48.708;9.030;2022-10-16T01:23:05;13.80;99.90
16283;DHT22;8249;48.708;9.030;2022-10-16T01:25:55;13.80;99.90
16283;DHT22;8249;48.708;9.030;2022-10-16T01:28:29;13.70;99.90
16283;DHT22;8249;48.708;9.030;2022-10-16T01:30:59;13.70;99.90
16283;DHT22;8249;48.708;9.030;2022-10-16T01:33:32;13.70;99.90
16283;DHT22;8249;48.708;9.030;2022-10-16T01:36:07;13.70;99.90
16283;DHT22;8249;48.708;9.030;2022-10-16T01:38:37;13.70;99.90
16283;DHT22;8249;48.708;9.030;2022-10-16T01:41:09;13.70;99.90
16283;DHT22;8249;48.708;9.030;2022-10-16T01:43:41;13.70;99.90
16283;DHT22;8249;48.708;9.030;2022-10-16T01:46:10;13.70;99.90
16283;DHT22;8249;48.708;9.030;2022-10-16T01:48:39;13.70;99.90
16283;DHT22;8249;48.708;9.030;2022-10-16T01:51:11;13.80;99.90
16283;DHT22;8249;48.708;9.030;2022-10-16T01:53:39;13.80;99.90
16283;DHT22;8249;48.708;9.030;2022-10-16T01:56:09;13.80;99.90
16283;DHT22;8249;48.708;9.030;2022-10-16T01:58:41;13.80;99.90
16283;DHT22;8249;48.708;9.030;2022-10-16T02:01:10;13.80;99.90
16283;DHT22;8249;48.708;9.030;2022-10-16T02:03:40;13.90;99.90
16283;DHT22;8249;48.708;9.030;2022-10-16T02:06:12;13.90;99.90
16283;DHT22;8249;48.708;9.030;2022-10-16T02:08:39;13.90;99.90
16283;DHT22;8249;48.708;9.030;2022-10-16T02:11:09;13.90;99.90
16283;DHT22;8249;48.708;9.030;2022-10-16T02:13:41;13.90;99.90
16283;DHT22;8249;48.708;9.030;2022-10-16T02:16:11;14.00;99.90
16283;DHT22;8249;48.708;9.030;2022-10-16T02:18:40;14.00;99.90
16283;DHT22;8249;48.708;9.030;2022-10-16T02:21:14;14.00;99.90
16283;DHT22;8249;48.708;9.030;2022-10-16T02:23:57;14.00;99.90
16283;DHT22;8249;48.708;9.030;2022-10-16T02:26:28;14.00;99.90
16283;DHT22;8249;48.708;9.030;2022-10-16T02:29:00;14.00;99.90
16283;DHT22;8249;48.708;9.030;2022-10-16T02:31:32;14.00;99.90
16283;DHT22;8249;48.708;9.030;2022-10-16T02:34:03;14.00;99.90
16283;DHT22;8249;48.708;9.030;2022-10-16T02:36:31;14.00;99.90
16283;DHT22;8249;48.708;9.030;2022-10-16T02:38:59;14.00;99.90
16283;DHT22;8249;48.708;9.030;2022-10-16T02:41:27;14.00;99.90
16283;DHT22;8249;48.708;9.030;2022-10-16T02:43:54;14.00;99.90
16283;DHT22;8249;48.708;9.030;2022-10-16T02:46:23;14.10;99.90
16283;DHT22;8249;48.708;9.030;2022-10-16T02:48:50;14.10;99.90
16283;DHT22;8249;48.708;9.030;2022-10-16T02:51:16;14.10;99.90
16283;DHT22;8249;48.708;9.030;2022-10-16T02:53:43;14.10;99.90
16283;DHT22;8249;48.708;9.030;2022-10-16T02:56:10;14.10;99.90
16283;DHT22;8249;48.708;9.030;2022-10-16T02:58:37;14.10;99.90
16283;DHT22;8249;48.708;9.030;2022-10-16T03:01:04;14.10;99.90
16283;DHT22;8249;48.708;9.030;2022-10-16T03:03:32;14.10;99.90
16283;DHT22;8249;48.708;9.030;2022-10-16T03:05:59;14.10;99.90
16283;DHT22;8249;48.708;9.030;2022-10-16T03:08:26;14.10;99.90
16283;DHT22;8249;48.708;9.030;2022-10-16T03:10:53;14.00;99.90
16283;DHT22;8249;48.708;9.030;2022-10-16T03:13:20;14.00;99.90
16283;DHT22;8249;48.708;9.030;2022-10-16T03:15:47;14.00;99.90
16283;DHT22;8249;48.708;9.030;2022-10-16T03:18:14;14.00;99.90
16283;DHT22;8249;48.708;9.030;2022-10-16T03:20:43;13.90;99.90
16283;DHT22;8249;48.708;9.030;2022-10-16T03:23:11;13.90;99.90
16283;DHT22;8249;48.708;9.030;2022-10-16T03:25:38;13.90;99.90
16283;DHT22;8249;48.708;9.030;2022-10-16T03:28:05;13.90;99.90
16283;DHT22;8249;48.708;9.030;2022-10-16T03:30:32;13.90;99.90
16283;DHT22;8249;48.708;9.030;2022-10-16T03:32:59;13.90;99.90
16283;DHT22;8249;48.708;9.030;2022-10-16T03:35:26;13.90;99.90
16283;DHT22;8249;48.708;9.030;2022-10-16T03:37:54;13.90;99.90
16283;DHT22;8249;48.708;9.030;2022-10-16T03:40:22;13.90;99.90
16283;DHT22;8249;48.708;9.030;2022-10-16T03:42:49;13.90;99.90
16283;DHT22;8249;48.708;9.030;2022-10-16T03:45:16;13.90;99.90
16283;DHT22;8249;48.708;9.030;2022-10-16T03:47:43;13.80;99.90
16283;DHT22;8249;48.708;9.030;2022-10-16T03:50:10;13.80;99.90
16283;DHT22;8249;48.708;9.030;2022-10-16T03:52:36;13.80;99.90
16283;DHT22;8249;48.708;9.030;2022-10-16T03:55:06;13.80;99.90
16283;DHT22;8249;48.708;9.030;2022-10-16T03:57:33;13.80;99.90
16283;DHT22;8249;48.708;9.030;2022-10-16T04:00:00;13.80;99.90
16283;DHT22;8249;48.708;9.030;2022-10-16T04:02:37;13.80;99.90
16283;DHT22;8249;48.708;9.030;2022-10-16T04:05:05;13.80;99.90
16283;DHT22;8249;48.708;9.030;2022-10-16T04:07:32;13.80;99.90
16283;DHT22;8249;48.708;9.030;2022-10-16T04:09:59;13.70;99.90
16283;DHT22;8249;48.708;9.030;2022-10-16T04:12:27;13.70;99.90
16283;DHT22;8249;48.708;9.030;2022-10-16T04:14:54;13.70;99.90
16283;DHT22;8249;48.708;9.030;2022-10-16T04:17:21;13.70;99.90
16283;DHT22;8249;48.708;9.030;2022-10-16T04:19:48;13.70;99.90
16283;DHT22;8249;48.708;9.030;2022-10-16T04:22:15;13.70;99.90
16283;DHT22;8249;48.708;9.030;2022-10-16T04:24:42;13.70;99.90
16283;DHT22;8249;48.708;9.030;2022-10-16T04:27:09;13.70;99.90
16283;DHT22;8249;48.708;9.030;2022-10-16T04:29:37;13.70;99.90
16283;DHT22;8249;48.708;9.030;2022-10-16T04:32:04;13.70;99.90
16283;DHT22;8249;48.708;9.030;2022-10-16T04:34:31;13.70;99.90
16283;DHT22;8249;48.708;9.030;2022-10-16T04:36:58;13.70;99.90
16283;DHT22;8249;48.708;9.030;2022-10-16T04:39:25;13.70;99.90
16283;DHT22;8249;48.708;9.030;2022-10-16T04:41:52;13.70;99.90
16283;DHT22;8249;48.708;9.030;2022-10-16T04:44:19;13.70;99.90
16283;DHT22;8249;48.708;9.030;2022-10-16T04:46:49;13.70;99.90
16283;DHT22;8249;48.708;9.030;2022-10-16T04:49:16;13.70;99.90
16283;DHT22;8249;48.708;9.030;2022-10-16T04:51:43;13.60;99.90
16283;DHT22;8249;48.708;9.030;2022-10-16T04:54:10;13.70;99.90
16283;DHT22;8249;48.708;9.030;2022-10-16T04:56:38;13.70;99.90
16283;DHT22;8249;48.708;9.030;2022-10-16T04:59:12;13.70;99.90
16283;DHT22;8249;48.708;9.030;2022-10-16T05:01:40;13.70;99.90
16283;DHT22;8249;48.708;9.030;2022-10-16T05:04:08;13.70;99.90
16283;DHT22;8249;48.708;9.030;2022-10-16T05:06:36;13.80;99.90
16283;DHT22;8249;48.708;9.030;2022-10-16T05:09:04;13.70;99.90
16283;DHT22;8249;48.708;9.030;2022-10-16T05:11:31;13.70;99.90
16283;DHT22;8249;48.708;9.030;2022-10-16T05:13:58;13.80;99.90
16283;DHT22;8249;48.708;9.030;2022-10-16T05:16:25;13.70;99.90
16283;DHT22;8249;48.708;9.030;2022-10-16T05:18:52;13.70;99.90
16283;DHT22;8249;48.708;9.030;2022-10-16T05:21:21;13.70;99.90
16283;DHT22;8249;48.708;9.030;2022-10-16T05:23:48;13.70;99.90
16283;DHT22;8249;48.708;9.030;2022-10-16T05:26:15;13.70;99.90
16283;DHT22;8249;48.708;9.030;2022-10-16T05:28:42;13.70;99.90
16283;DHT22;8249;48.708;9.030;2022-10-16T05:31:09;13.60;99.90
16283;DHT22;8249;48.708;9.030;2022-10-16T05:33:36;13.60;99.90
16283;DHT22;8249;48.708;9.030;2022-10-16T05:36:05;13.50;99.90
16283;DHT22;8249;48.708;9.030;2022-10-16T05:38:35;13.50;99.90
16283;DHT22;8249;48.708;9.030;2022-10-16T05:41:02;13.50;99.90
16283;DHT22;8249;48.708;9.030;2022-10-16T05:43:29;13.40;99.90
16283;DHT22;8249;48.708;9.030;2022-10-16T05:45:57;13.40;99.90
16283;DHT22;8249;48.708;9.030;2022-10-16T05:48:25;13.40;99.90
16283;DHT22;8249;48.708;9.030;2022-10-16T05:51:00;13.40;99.90
16283;DHT22;8249;48.708;9.030;2022-10-16T05:53:27;13.40;99.90
16283;DHT22;8249;48.708;9.030;2022-10-16T05:55:56;13.40;99.90
16283;DHT22;8249;48.708;9.030;2022-10-16T05:58:23;13.50;99.90
16283;DHT22;8249;48.708;9.030;2022-10-16T06:00:55;13.50;99.90
16283;DHT22;8249;48.708;9.030;2022-10-16T06:03:22;13.50;99.90
16283;DHT22;8249;48.708;9.030;2022-10-16T06:05:49;13.50;99.90
16283;DHT22;8249;48.708;9.030;2022-10-16T06:08:17;13.60;99.90
16283;DHT22;8249;48.708;9.030;2022-10-16T06:10:45;13.60;99.90
16283;DHT22;8249;48.708;9.030;2022-10-16T06:13:14;13.60;99.90
16283;DHT22;8249;48.708;9.030;2022-10-16T06:15:42;13.70;99.90
16283;DHT22;8249;48.708;9.030;2022-10-16T06:18:09;13.70;99.90
16283;DHT22;8249;48.708;9.030;2022-10-16T06:20:36;13.80;99.90
16283;DHT22;8249;48.708;9.030;2022-10-16T06:23:03;13.90;99.90
16283;DHT22;8249;48.708;9.030;2022-10-16T06:25:30;13.90;99.90
16283;DHT22;8249;48.708;9.030;2022-10-16T06:27:57;13.90;99.90
16283;DHT22;8249;48.708;9.030;2022-10-16T06:30:26;14.00;99.90
16283;DHT22;8249;48.708;9.030;2022-10-16T06:32:53;14.00;99.90
16283;DHT22;8249;48.708;9.030;2022-10-16T06:35:19;14.10;99.90
16283;DHT22;8249;48.708;9.030;2022-10-16T06:37:46;14.10;99.90
16283;DHT22;8249;48.708;9.030;2022-10-16T06:40:13;14.20;99.90
16283;DHT22;8249;48.708;9.030;2022-10-16T06:42:41;14.20;99.90
16283;DHT22;8249;48.708;9.030;2022-10-16T06:45:08;14.30;99.90
16283;DHT22;8249;48.708;9.030;2022-10-16T06:47:37;14.40;99.90
16283;DHT22;8249;48.708;9.030;2022-10-16T06:50:05;14.50;99.90
16283;DHT22;8249;48.708;9.030;2022-10-16T06:52:33;14.50;99.90
16283;DHT22;8249;48.708;9.030;2022-10-16T06:55:00;14.50;99.90
16283;DHT22;8249;48.708;9.030;2022-10-16T06:57:28;14.60;99.90
16283;DHT22;8249;48.708;9.030;2022-10-16T06:59:56;14.60;99.90
16283;DHT22;8249;48.708;9.030;2022-10-16T07:02:23;14.70;99.90
16283;DHT22;8249;48.708;9.030;2022-10-16T07:04:51;14.70;99.90
16283;DHT22;8249;48.708;9.030;2022-10-16T07:07:18;14.80;99.90
16283;DHT22;8249;48.708;9.030;2022-10-16T07:09:45;14.80;99.90
16283;DHT22;8249;48.708;9.030;2022-10-16T07:12:12;14.90;99.90
16283;DHT22;8249;48.708;9.030;2022-10-16T07:14:39;15.00;99.90
16283;DHT22;8249;48.708;9.030;2022-10-16T07:17:06;15.00;99.90
16283;DHT22;8249;48.708;9.030;2022-10-16T07:19:33;15.10;99.90
16283;DHT22;8249;48.708;9.030;2022-10-16T07:22:02;15.10;99.90
16283;DHT22;8249;48.708;9.030;2022-10-16T07:24:29;15.20;99.90
16283;DHT22;8249;48.708;9.030;2022-10-16T07:26:55;15.20;99.90
16283;DHT22;8249;48.708;9.030;2022-10-16T07:29:25;15.30;99.90
16283;DHT22;8249;48.708;9.030;2022-10-16T07:31:53;15.30;99.90
16283;DHT22;8249;48.708;9.030;2022-10-16T07:34:23;15.40;99.90
16283;DHT22;8249;48.708;9.030;2022-10-16T07:36:50;15.40;99.90
16283;DHT22;8249;48.708;9.030;2022-10-16T07:39:19;15.50;99.90
16283;DHT22;8249;48.708;9.030;2022-10-16T07:41:46;15.50;99.90
16283;DHT22;8249;48.708;9.030;2022-10-16T07:44:13;15.50;99.90
16283;DHT22;8249;48.708;9.030;2022-10-16T07:46:40;15.60;99.90
16283;DHT22;8249;48.708;9.030;2022-10-16T07:49:08;15.70;99.90
16283;DHT22;8249;48.708;9.030;2022-10-16T07:51:36;15.70;99.90
16283;DHT22;8249;48.708;9.030;2022-10-16T07:54:03;15.70;99.90
16283;DHT22;8249;48.708;9.030;2022-10-16T07:56:32;15.80;99.90
16283;DHT22;8249;48.708;9.030;2022-10-16T07:59:00;15.80;99.90
16283;DHT22;8249;48.708;9.030;2022-10-16T08:01:27;15.90;99.90
16283;DHT22;8249;48.708;9.030;2022-10-16T08:03:54;15.90;99.90
16283;DHT22;8249;48.708;9.030;2022-10-16T08:06:24;16.00;99.90
16283;DHT22;8249;48.708;9.030;2022-10-16T08:08:51;16.10;99.90
16283;DHT22;8249;48.708;9.030;2022-10-16T08:11:18;16.30;99.90
16283;DHT22;8249;48.708;9.030;2022-10-16T08:13:47;16.40;99.90
16283;DHT22;8249;48.708;9.030;2022-10-16T08:16:13;16.60;99.90
16283;DHT22;8249;48.708;9.030;2022-10-16T08:18:42;16.80;99.90
16283;DHT22;8249;48.708;9.030;2022-10-16T08:21:13;16.90;99.90
16283;DHT22;8249;48.708;9.030;2022-10-16T08:23:40;17.10;99.90
16283;DHT22;8249;48.708;9.030;2022-10-16T08:26:08;17.20;99.90
16283;DHT22;8249;48.708;9.030;2022-10-16T08:28:35;17.40;99.90
16283;DHT22;8249;48.708;9.030;2022-10-16T08:31:09;17.60;99.90
16283;DHT22;8249;48.708;9.030;2022-10-16T08:33:36;17.60;99.90
16283;DHT22;8249;48.708;9.030;2022-10-16T08:36:04;17.60;99.90
16283;DHT22;8249;48.708;9.030;2022-10-16T08:38:31;17.60;99.90
16283;DHT22;8249;48.708;9.030;2022-10-16T08:41:09;17.60;99.90
16283;DHT22;8249;48.708;9.030;2022-10-16T08:43:49;17.60;99.90
16283;DHT22;8249;48.708;9.030;2022-10-16T08:46:30;17.60;99.90
16283;DHT22;8249;48.708;9.030;2022-10-16T08:49:00;17.50;99.90
16283;DHT22;8249;48.708;9.030;2022-10-16T08:51:31;17.50;99.90
16283;DHT22;8249;48.708;9.030;2022-10-16T08:54:01;17.60;99.90
16283;DHT22;8249;48.708;9.030;2022-10-16T08:56:29;17.60;99.90
16283;DHT22;8249;48.708;9.030;2022-10-16T08:58:58;17.70;99.90
16283;DHT22;8249;48.708;9.030;2022-10-16T09:01:35;17.90;99.90
16283;DHT22;8249;48.708;9.030;2022-10-16T09:07:11;18.30;99.90
16283;DHT22;8249;48.708;9.030;2022-10-16T09:10:00;18.60;99.90
16283;DHT22;8249;48.708;9.030;2022-10-16T09:12:32;18.90;99.90
16283;DHT22;8249;48.708;9.030;2022-10-16T09:15:10;19.30;99.90
16283;DHT22;8249;48.708;9.030;2022-10-16T09:17:53;19.90;99.90
16283;DHT22;8249;48.708;9.030;2022-10-16T09:20:50;21.30;99.90
16283;DHT22;8249;48.708;9.030;2022-10-16T09:23:22;22.30;99.90
16283;DHT22;8249;48.708;9.030;2022-10-16T09:25:53;23.40;99.90
16283;DHT22;8249;48.708;9.030;2022-10-16T09:28:20;24.10;99.90
16283;DHT22;8249;48.708;9.030;2022-10-16T09:30:48;24.60;99.90
16283;DHT22;8249;48.708;9.030;2022-10-16T09:33:18;25.20;99.90
16283;DHT22;8249;48.708;9.030;2022-10-16T09:35:47;25.00;99.90
16283;DHT22;8249;48.708;9.030;2022-10-16T09:38:27;24.20;99.90
16283;DHT22;8249;48.708;9.030;2022-10-16T09:40:58;23.20;99.90
16283;DHT22;8249;48.708;9.030;2022-10-16T09:43:33;22.70;99.90
16283;DHT22;8249;48.708;9.030;2022-10-16T09:46:03;22.40;99.90
16283;DHT22;8249;48.708;9.030;2022-10-16T09:48:36;23.00;99.90
16283;DHT22;8249;48.708;9.030;2022-10-16T09:51:05;23.50;99.90
16283;DHT22;8249;48.708;9.030;2022-10-16T09:53:41;23.30;99.90
16283;DHT22;8249;48.708;9.030;2022-10-16T09:56:28;23.10;99.90
16283;DHT22;8249;48.708;9.030;2022-10-16T09:58:59;23.30;99.90
16283;DHT22;8249;48.708;9.030;2022-10-16T10:01:30;23.30;99.90
16283;DHT22;8249;48.708;9.030;2022-10-16T10:03:59;23.00;99.90
16283;DHT22;8249;48.708;9.030;2022-10-16T10:06:30;23.00;99.90
16283;DHT22;8249;48.708;9.030;2022-10-16T10:09:02;23.80;99.90
16283;DHT22;8249;48.708;9.030;2022-10-16T10:11:52;24.20;99.90
16283;DHT22;8249;48.708;9.030;2022-10-16T10:14:37;24.70;99.90
16283;DHT22;8249;48.708;9.030;2022-10-16T10:17:15;25.10;99.90
16283;DHT22;8249;48.708;9.030;2022-10-16T10:19:47;25.00;99.90
16283;DHT22;8249;48.708;9.030;2022-10-16T10:22:23;24.80;99.90
16283;DHT22;8249;48.708;9.030;2022-10-16T10:25:01;24.40;99.90
16283;DHT22;8249;48.708;9.030;2022-10-16T10:27:38;24.10;99.90
16283;DHT22;8249;48.708;9.030;2022-10-16T10:30:13;23.90;99.90
16283;DHT22;8249;48.708;9.030;2022-10-16T10:32:48;23.80;99.90
16283;DHT22;8249;48.708;9.030;2022-10-16T10:35:25;23.60;99.90
16283;DHT22;8249;48.708;9.030;2022-10-16T10:38:07;23.60;99.90
16283;DHT22;8249;48.708;9.030;2022-10-16T10:40:48;23.70;99.90
16283;DHT22;8249;48.708;9.030;2022-10-16T10:43:26;23.70;99.90
16283;DHT22;8249;48.708;9.030;2022-10-16T10:45:59;23.80;99.90
16283;DHT22;8249;48.708;9.030;2022-10-16T10:51:34;25.80;99.90
16283;DHT22;8249;48.708;9.030;2022-10-16T10:54:12;26.80;99.90
16283;DHT22;8249;48.708;9.030;2022-10-16T10:56:46;27.60;99.90
16283;DHT22;8249;48.708;9.030;2022-10-16T10:59:57;28.40;99.90
16283;DHT22;8249;48.708;9.030;2022-10-16T11:02:33;29.10;99.90
16283;DHT22;8249;48.708;9.030;2022-10-16T11:08:02;29.10;99.90
16283;DHT22;8249;48.708;9.030;2022-10-16T11:10:35;28.40;99.90
16283;DHT22;8249;48.708;9.030;2022-10-16T11:13:15;27.80;99.90
16283;DHT22;8249;48.708;9.030;2022-10-16T11:15:44;27.10;99.90
16283;DHT22;8249;48.708;9.030;2022-10-16T11:18:18;26.50;99.90
16283;DHT22;8249;48.708;9.030;2022-10-16T11:20:50;26.00;99.90
16283;DHT22;8249;48.708;9.030;2022-10-16T11:23:25;26.10;99.90
16283;DHT22;8249;48.708;9.030;2022-10-16T11:25:54;26.00;99.90
16283;DHT22;8249;48.708;9.030;2022-10-16T11:28:27;26.10;99.90
16283;DHT22;8249;48.708;9.030;2022-10-16T11:31:00;26.10;99.90
16283;DHT22;8249;48.708;9.030;2022-10-16T11:33:30;26.00;99.90
16283;DHT22;8249;48.708;9.030;2022-10-16T11:36:05;25.70;99.90
16283;DHT22;8249;48.708;9.030;2022-10-16T11:38:41;25.50;99.90
16283;DHT22;8249;48.708;9.030;2022-10-16T11:41:15;26.20;99.90
16283;DHT22;8249;48.708;9.030;2022-10-16T11:43:51;26.50;99.90
16283;DHT22;8249;48.708;9.030;2022-10-16T11:46:21;26.90;99.90
16283;DHT22;8249;48.708;9.030;2022-10-16T11:48:55;27.50;99.90
16283;DHT22;8249;48.708;9.030;2022-10-16T11:51:29;27.60;99.90
16283;DHT22;8249;48.708;9.030;2022-10-16T11:54:03;27.20;99.90
16283;DHT22;8249;48.708;9.030;2022-10-16T11:56:32;27.30;99.90
16283;DHT22;8249;48.708;9.030;2022-10-16T11:59:07;28.40;99.90
16283;DHT22;8249;48.708;9.030;2022-10-16T12:01:42;29.60;99.90
16283;DHT22;8249;48.708;9.030;2022-10-16T12:04:17;30.20;99.90
16283;DHT22;8249;48.708;9.030;2022-10-16T12:06:49;30.20;99.60
16283;DHT22;8249;48.708;9.030;2022-10-16T12:09:25;29.60;99.80
16283;DHT22;8249;48.708;9.030;2022-10-16T12:11:53;28.70;99.90
16283;DHT22;8249;48.708;9.030;2022-10-16T12:14:38;28.40;99.90
16283;DHT22;8249;48.708;9.030;2022-10-16T12:17:25;28.30;99.90
16283;DHT22;8249;48.708;9.030;2022-10-16T12:20:18;28.00;99.90
16283;DHT22;8249;48.708;9.030;2022-10-16T12:22:49;27.50;99.90
16283;DHT22;8249;48.708;9.030;2022-10-16T12:25:25;27.20;99.90
16283;DHT22;8249;48.708;9.030;2022-10-16T12:27:59;27.30;99.90
16283;DHT22;8249;48.708;9.030;2022-10-16T12:30:28;27.30;99.90
16283;DHT22;8249;48.708;9.030;2022-10-16T12:32:56;27.50;99.70
16283;DHT22;8249;48.708;9.030;2022-10-16T12:35:28;28.40;99.90
16283;DHT22;8249;48.708;9.030;2022-10-16T12:38:06;29.30;97.90
16283;DHT22;8249;48.708;9.030;2022-10-16T12:40:37;29.90;97.00
16283;DHT22;8249;48.708;9.030;2022-10-16T12:43:26;29.60;96.60
16283;DHT22;8249;48.708;9.030;2022-10-16T12:46:05;28.10;97.60
16283;DHT22;8249;48.708;9.030;2022-10-16T12:48:33;27.00;98.50
16283;DHT22;8249;48.708;9.030;2022-10-16T12:51:10;25.90;99.80
16283;DHT22;8249;48.708;9.030;2022-10-16T12:53:38;25.20;99.90
16283;DHT22;8249;48.708;9.030;2022-10-16T12:56:13;24.80;99.90
16283;DHT22;8249;48.708;9.030;2022-10-16T12:58:52;24.60;99.90
16283;DHT22;8249;48.708;9.030;2022-10-16T13:01:37;24.70;99.90
16283;DHT22;8249;48.708;9.030;2022-10-16T13:04:22;24.90;99.90
16283;DHT22;8249;48.708;9.030;2022-10-16T13:06:58;25.00;99.90
16283;DHT22;8249;48.708;9.030;2022-10-16T13:09:37;24.90;99.90
16283;DHT22;8249;48.708;9.030;2022-10-16T13:12:35;24.90;99.90
16283;DHT22;8249;48.708;9.030;2022-10-16T13:15:36;24.80;99.90
16283;DHT22;8249;48.708;9.030;2022-10-16T13:18:15;24.70;99.90
16283;DHT22;8249;48.708;9.030;2022-10-16T13:21:00;24.70;99.90
16283;DHT22;8249;48.708;9.030;2022-10-16T13:23:34;25.00;99.90
16283;DHT22;8249;48.708;9.030;2022-10-16T13:26:13;25.40;99.90
16283;DHT22;8249;48.708;9.030;2022-10-16T13:28:45;25.90;99.90
16283;DHT22;8249;48.708;9.030;2022-10-16T13:31:16;26.60;99.90
16283;DHT22;8249;48.708;9.030;2022-10-16T13:33:46;26.80;99.90
16283;DHT22;8249;48.708;9.030;2022-10-16T13:36:20;26.90;99.90
16283;DHT22;8249;48.708;9.030;2022-10-16T13:38:47;27.10;99.90
16283;DHT22;8249;48.708;9.030;2022-10-16T13:41:16;27.40;99.90
16283;DHT22;8249;48.708;9.030;2022-10-16T13:43:46;27.50;99.90
16283;DHT22;8249;48.708;9.030;2022-10-16T13:46:16;27.30;99.90
16283;DHT22;8249;48.708;9.030;2022-10-16T13:48:43;27.20;99.90
16283;DHT22;8249;48.708;9.030;2022-10-16T13:51:13;26.90;99.90
16283;DHT22;8249;48.708;9.030;2022-10-16T13:53:41;26.70;99.90
16283;DHT22;8249;48.708;9.030;2022-10-16T13:56:12;26.50;99.90
16283;DHT22;8249;48.708;9.030;2022-10-16T13:58:40;26.20;99.90
16283;DHT22;8249;48.708;9.030;2022-10-16T14:01:16;26.00;99.90
16283;DHT22;8249;48.708;9.030;2022-10-16T14:03:45;25.60;99.90
16283;DHT22;8249;48.708;9.030;2022-10-16T14:06:14;25.30;99.90
16283;DHT22;8249;48.708;9.030;2022-10-16T14:08:45;25.00;99.90
16283;DHT22;8249;48.708;9.030;2022-10-16T14:11:21;24.80;99.90
16283;DHT22;8249;48.708;9.030;2022-10-16T14:13:50;24.60;99.90
16283;DHT22;8249;48.708;9.030;2022-10-16T14:16:21;24.50;99.90
16283;DHT22;8249;48.708;9.030;2022-10-16T14:18:55;24.40;99.90
16283;DHT22;8249;48.708;9.030;2022-10-16T14:21:22;24.30;99.90
16283;DHT22;8249;48.708;9.030;2022-10-16T14:23:50;24.20;99.90
16283;DHT22;8249;48.708;9.030;2022-10-16T14:26:19;24.10;99.90
16283;DHT22;8249;48.708;9.030;2022-10-16T14:28:48;24.10;99.90
16283;DHT22;8249;48.708;9.030;2022-10-16T14:31:29;24.10;99.90
16283;DHT22;8249;48.708;9.030;2022-10-16T14:33:57;24.10;99.90
16283;DHT22;8249;48.708;9.030;2022-10-16T14:36:25;24.10;99.90
16283;DHT22;8249;48.708;9.030;2022-10-16T14:38:58;24.20;99.90
16283;DHT22;8249;48.708;9.030;2022-10-16T14:41:26;24.90;99.90
16283;DHT22;8249;48.708;9.030;2022-10-16T14:43:56;25.50;99.90
16283;DHT22;8249;48.708;9.030;2022-10-16T14:46:31;25.90;99.90
16283;DHT22;8249;48.708;9.030;2022-10-16T14:49:02;26.20;99.90
16283;DHT22;8249;48.708;9.030;2022-10-16T14:51:30;26.30;99.90
16283;DHT22;8249;48.708;9.030;2022-10-16T14:53:57;26.70;99.90
16283;DHT22;8249;48.708;9.030;2022-10-16T14:56:26;27.80;99.90
16283;DHT22;8249;48.708;9.030;2022-10-16T14:58:55;28.80;99.90
16283;DHT22;8249;48.708;9.030;2022-10-16T15:01:22;29.20;99.90
16283;DHT22;8249;48.708;9.030;2022-10-16T15:03:51;29.40;99.90
16283;DHT22;8249;48.708;9.030;2022-10-16T15:06:21;29.80;99.90
16283;DHT22;8249;48.708;9.030;2022-10-16T15:08:48;29.60;99.90
16283;DHT22;8249;48.708;9.030;2022-10-16T15:11:17;29.10;99.90
16283;DHT22;8249;48.708;9.030;2022-10-16T15:13:44;28.60;99.90
16283;DHT22;8249;48.708;9.030;2022-10-16T15:16:13;28.50;99.90
16283;DHT22;8249;48.708;9.030;2022-10-16T15:18:40;28.20;99.90
16283;DHT22;8249;48.708;9.030;2022-10-16T15:21:09;28.00;99.90
16283;DHT22;8249;48.708;9.030;2022-10-16T15:23:37;28.10;99.90
16283;DHT22;8249;48.708;9.030;2022-10-16T15:26:04;28.10;99.90
16283;DHT22;8249;48.708;9.030;2022-10-16T15:28:31;28.20;99.90
16283;DHT22;8249;48.708;9.030;2022-10-16T15:30:58;27.90;99.90
16283;DHT22;8249;48.708;9.030;2022-10-16T15:33:27;27.10;99.90
16283;DHT22;8249;48.708;9.030;2022-10-16T15:35:58;26.30;99.90
16283;DHT22;8249;48.708;9.030;2022-10-16T15:38:27;25.40;99.90
16283;DHT22;8249;48.708;9.030;2022-10-16T15:40:55;24.70;99.90
16283;DHT22;8249;48.708;9.030;2022-10-16T15:43:22;24.10;99.90
16283;DHT22;8249;48.708;9.030;2022-10-16T15:45:59;23.50;99.90
16283;DHT22;8249;48.708;9.030;2022-10-16T15:48:27;22.90;99.90
16283;DHT22;8249;48.708;9.030;2022-10-16T15:50:54;22.60;99.90
16283;DHT22;8249;48.708;9.030;2022-10-16T15:53:21;22.30;99.90
16283;DHT22;8249;48.708;9.030;2022-10-16T15:55:50;22.10;99.90
16283;DHT22;8249;48.708;9.030;2022-10-16T15:58:17;21.80;99.90
16283;DHT22;8249;48.708;9.030;2022-10-16T16:00:44;21.60;99.90
16283;DHT22;8249;48.708;9.030;2022-10-16T16:03:11;21.30;99.90
16283;DHT22;8249;48.708;9.030;2022-10-16T16:05:38;21.10;99.90
16283;DHT22;8249;48.708;9.030;2022-10-16T16:08:06;20.80;99.90
16283;DHT22;8249;48.708;9.030;2022-10-16T16:10:33;20.60;99.90
16283;DHT22;8249;48.708;9.030;2022-10-16T16:13:01;20.40;99.90
16283;DHT22;8249;48.708;9.030;2022-10-16T16:15:28;20.20;99.90